createdAt,value
2018-12-18T00:00:07.662Z,20.67
2018-12-18T00:02:33.807Z,19.13
2018-12-18T00:05:01.995Z,20.17
2018-12-18T00:07:28.130Z,18.63
2018-12-18T00:09:54.259Z,17.83
2018-12-18T00:12:20.376Z,20.70
2018-12-18T00:14:46.508Z,20.80
2018-12-18T00:17:12.654Z,20.77
2018-12-18T00:19:38.792Z,19.07
2018-12-18T00:22:05.779Z,18.13
2018-12-18T00:24:31.898Z,19.80
2018-12-18T00:26:58.060Z,20.80
2018-12-18T00:29:24.288Z,17.40
2018-12-18T00:31:50.434Z,17.83
2018-12-18T00:34:16.582Z,17.63
2018-12-18T00:36:42.739Z,20.87
2018-12-18T00:39:10.898Z,18.77
2018-12-18T00:41:37.023Z,17.93
2018-12-18T00:44:03.310Z,20.23
2018-12-18T00:46:29.454Z,19.97
2018-12-18T00:48:55.583Z,23.00
2018-12-18T00:51:21.699Z,23.73
2018-12-18T00:53:47.827Z,23.97
2018-12-18T00:56:13.975Z,21.03
2018-12-18T00:58:40.100Z,22.37
2018-12-18T01:01:06.227Z,19.37
2018-12-18T01:03:32.342Z,23.47
2018-12-18T01:05:58.498Z,18.47
2018-12-18T01:08:24.654Z,22.20
2018-12-18T01:10:50.768Z,22.80
2018-12-18T01:13:16.935Z,21.23
2018-12-18T01:15:43.094Z,25.03
2018-12-18T01:18:09.248Z,23.07
2018-12-18T01:20:35.375Z,24.37
2018-12-18T01:23:01.499Z,23.97
2018-12-18T01:25:27.616Z,22.10
2018-12-18T01:27:53.759Z,22.77
2018-12-18T01:30:19.874Z,23.43
2018-12-18T01:32:46.001Z,24.03
2018-12-18T01:35:12.132Z,24.07
2018-12-18T01:37:38.277Z,23.67
2018-12-18T01:40:04.836Z,23.33
2018-12-18T01:42:30.975Z,25.30
2018-12-18T01:44:57.117Z,26.00
2018-12-18T01:47:23.260Z,24.53
2018-12-18T01:49:49.368Z,22.90
2018-12-18T01:52:15.510Z,24.53
2018-12-18T01:54:41.616Z,22.43
2018-12-18T01:57:07.764Z,26.83
2018-12-18T01:59:33.876Z,23.63
2018-12-18T02:01:59.996Z,27.17
2018-12-18T02:04:26.131Z,21.73
2018-12-18T02:06:52.249Z,22.87
2018-12-18T02:09:18.404Z,23.83
2018-12-18T02:11:44.646Z,21.70
2018-12-18T02:14:10.799Z,23.47
2018-12-18T02:16:36.914Z,25.00
2018-12-18T02:19:03.055Z,26.73
2018-12-18T02:21:29.192Z,22.40
2018-12-18T02:23:55.334Z,21.93
2018-12-18T02:26:21.449Z,18.30
2018-12-18T02:28:47.590Z,20.50
2018-12-18T02:31:13.724Z,24.27
2018-12-18T02:33:39.860Z,21.80
2018-12-18T02:36:05.988Z,23.63
2018-12-18T02:38:32.195Z,26.60
2018-12-18T02:40:58.333Z,22.57
2018-12-18T02:43:24.485Z,21.63
2018-12-18T02:45:50.597Z,22.90
2018-12-18T02:48:17.367Z,20.43
2018-12-18T02:50:43.514Z,27.27
2018-12-18T02:53:09.671Z,23.30
2018-12-18T02:55:35.839Z,22.60
2018-12-18T02:58:01.984Z,23.37
2018-12-18T03:00:28.115Z,20.83
2018-12-18T03:02:54.235Z,27.83
2018-12-18T03:05:20.645Z,17.63
2018-12-18T03:07:46.787Z,26.13
2018-12-18T03:10:13.042Z,22.67
2018-12-18T03:12:39.151Z,19.63
2018-12-18T03:15:05.571Z,20.83
2018-12-18T03:17:31.713Z,18.97
2018-12-18T03:19:57.831Z,26.27
2018-12-18T03:22:23.990Z,23.20
2018-12-18T03:24:50.150Z,21.37
2018-12-18T03:27:16.266Z,21.07
2018-12-18T03:29:42.409Z,19.53
2018-12-18T03:32:10.572Z,18.50
2018-12-18T03:34:36.700Z,23.50
2018-12-18T03:37:02.851Z,20.97
2018-12-18T03:39:29.099Z,20.13
2018-12-18T03:41:55.462Z,19.03
2018-12-18T03:44:21.584Z,21.47
2018-12-18T03:46:47.727Z,21.87
2018-12-18T03:49:13.844Z,22.17
2018-12-18T03:51:39.996Z,22.03
2018-12-18T03:54:06.147Z,18.60
2018-12-18T03:56:32.298Z,21.63
2018-12-18T03:58:58.426Z,24.10
2018-12-18T04:01:24.541Z,22.83
2018-12-18T04:03:50.846Z,20.27
2018-12-18T04:06:17.063Z,20.03
2018-12-18T04:08:43.191Z,21.80
2018-12-18T04:11:09.349Z,23.33
2018-12-18T04:13:35.494Z,22.77
2018-12-18T04:16:01.623Z,21.03
2018-12-18T04:18:27.771Z,23.07
2018-12-18T04:20:53.908Z,20.43
2018-12-18T04:23:20.063Z,20.20
2018-12-18T04:25:46.201Z,22.80
2018-12-18T04:28:12.335Z,24.73
2018-12-18T04:30:38.463Z,28.60
2018-12-18T04:33:04.593Z,26.97
2018-12-18T04:35:30.755Z,23.07
2018-12-18T04:37:56.913Z,24.30
2018-12-18T04:40:23.066Z,24.97
2018-12-18T04:42:49.198Z,25.93
2018-12-18T04:45:15.876Z,22.00
2018-12-18T04:47:42.112Z,26.87
2018-12-18T04:50:08.265Z,25.53
2018-12-18T04:52:34.398Z,24.03
2018-12-18T04:55:00.541Z,26.27
2018-12-18T04:57:26.687Z,28.80
2018-12-18T04:59:52.798Z,29.57
2018-12-18T05:02:18.941Z,26.73
2018-12-18T05:04:50.269Z,28.17
2018-12-18T05:07:13.398Z,29.33
2018-12-18T05:09:39.585Z,28.63
2018-12-18T05:12:05.739Z,30.33
2018-12-18T05:14:31.880Z,27.30
2018-12-18T05:16:58.019Z,25.97
2018-12-18T05:19:24.281Z,26.70
2018-12-18T05:21:50.572Z,29.67
2018-12-18T05:24:16.824Z,23.87
2018-12-18T05:26:42.953Z,29.23
2018-12-18T05:29:09.090Z,31.03
2018-12-18T05:31:35.215Z,27.27
2018-12-18T05:34:01.372Z,28.33
2018-12-18T05:36:27.509Z,26.80
2018-12-18T05:38:53.676Z,32.13
2018-12-18T05:41:19.827Z,25.60
2018-12-18T05:43:45.982Z,33.70
2018-12-18T05:46:12.115Z,27.57
2018-12-18T05:48:38.244Z,27.83
2018-12-18T05:51:04.391Z,28.43
2018-12-18T05:53:30.525Z,25.50
2018-12-18T05:55:56.630Z,26.80
2018-12-18T05:58:22.767Z,27.33
2018-12-18T06:00:49.759Z,24.50
2018-12-18T06:03:16.106Z,33.67
2018-12-18T06:05:42.218Z,25.80
2018-12-18T06:08:08.363Z,27.63
2018-12-18T06:10:34.503Z,26.23
2018-12-18T06:13:00.672Z,29.37
2018-12-18T06:15:26.791Z,28.70
2018-12-18T06:17:52.924Z,30.77
2018-12-18T06:20:19.058Z,28.10
2018-12-18T06:22:45.207Z,26.27
2018-12-18T06:25:11.382Z,30.73
2018-12-18T06:27:37.604Z,32.87
2018-12-18T06:30:05.787Z,30.17
2018-12-18T06:32:31.915Z,31.43
2018-12-18T06:34:58.094Z,32.87
2018-12-18T06:37:24.226Z,33.07
2018-12-18T06:39:50.401Z,31.53
2018-12-18T06:42:16.615Z,32.17
2018-12-18T06:44:42.779Z,33.40
2018-12-18T06:47:08.916Z,35.20
2018-12-18T06:49:35.092Z,33.50
2018-12-18T06:52:01.270Z,32.47
2018-12-18T06:54:27.414Z,35.77
2018-12-18T06:56:53.556Z,35.00
2018-12-18T06:59:19.741Z,37.73
2018-12-18T07:01:45.868Z,34.40
2018-12-18T07:04:12.114Z,38.40
2018-12-18T07:06:38.251Z,35.13
2018-12-18T07:09:06.868Z,34.97
2018-12-18T07:11:33.039Z,32.70
2018-12-18T07:13:59.197Z,33.57
2018-12-18T07:16:25.387Z,32.43
2018-12-18T07:18:51.528Z,28.97
2018-12-18T07:21:17.654Z,28.50
2018-12-18T07:23:43.790Z,30.70
2018-12-18T07:26:09.935Z,33.67
2018-12-18T07:28:36.123Z,29.53
2018-12-18T07:31:02.273Z,30.67
2018-12-18T07:33:28.426Z,31.87
2018-12-18T07:35:54.599Z,28.43
2018-12-18T07:38:20.756Z,34.00
2018-12-18T07:40:46.913Z,28.33
2018-12-18T07:43:13.047Z,29.37
2018-12-18T07:45:39.255Z,32.27
2018-12-18T07:48:05.424Z,34.50
2018-12-18T07:50:31.583Z,36.33
2018-12-18T07:52:57.723Z,30.20
2018-12-18T07:55:23.862Z,37.17
2018-12-18T07:57:49.985Z,28.10
2018-12-18T08:00:16.139Z,32.47
2018-12-18T08:02:42.266Z,32.30
2018-12-18T08:05:08.417Z,27.50
2018-12-18T08:07:34.563Z,26.37
2018-12-18T08:10:00.675Z,25.70
2018-12-18T08:12:26.836Z,30.73
2018-12-18T08:14:53.042Z,26.13
2018-12-18T08:17:19.191Z,27.47
2018-12-18T08:19:45.451Z,29.97
2018-12-18T08:22:11.594Z,33.47
2018-12-18T08:24:37.712Z,27.70
2018-12-18T08:27:03.889Z,26.77
2018-12-18T08:29:30.031Z,31.43
2018-12-18T08:31:56.167Z,26.97
2018-12-18T08:34:22.315Z,38.53
2018-12-18T08:36:48.452Z,25.80
2018-12-18T08:39:14.645Z,27.80
2018-12-18T08:41:40.819Z,35.80
2018-12-18T08:44:07.057Z,35.53
2018-12-18T08:46:33.220Z,26.63
2018-12-18T08:49:00.222Z,27.27
2018-12-18T08:51:26.560Z,27.77
2018-12-18T08:53:52.706Z,30.43
2018-12-18T08:56:18.872Z,30.50
2018-12-18T08:58:45.026Z,29.83
2018-12-18T09:01:11.150Z,25.87
2018-12-18T09:03:37.316Z,29.77
2018-12-18T09:06:03.480Z,32.63
2018-12-18T09:08:29.767Z,27.43
2018-12-18T09:10:55.933Z,28.73
2018-12-18T09:13:22.069Z,33.30
2018-12-18T09:15:54.202Z,30.67
2018-12-18T09:18:20.390Z,30.77
2018-12-18T09:20:46.526Z,31.73
2018-12-18T09:23:12.652Z,28.53
2018-12-18T09:25:38.819Z,29.10
2018-12-18T09:28:04.938Z,27.00
2018-12-18T09:30:31.080Z,29.03
2018-12-18T09:32:57.257Z,33.23
2018-12-18T09:35:23.416Z,27.80
2018-12-18T09:37:51.608Z,26.93
2018-12-18T09:40:19.808Z,31.70
2018-12-18T09:42:51.959Z,27.00
2018-12-18T09:45:18.091Z,27.60
2018-12-18T09:47:44.223Z,28.77
2018-12-18T09:50:10.375Z,27.70
2018-12-18T09:52:36.583Z,35.37
2018-12-18T09:55:02.999Z,26.00
2018-12-18T09:57:35.230Z,27.33
2018-12-18T10:00:01.367Z,24.30
2018-12-18T10:02:27.534Z,28.07
2018-12-18T10:04:53.695Z,27.17
2018-12-18T10:07:19.840Z,25.67
2018-12-18T10:09:46.007Z,23.80
2018-12-18T10:12:12.132Z,27.10
2018-12-18T10:14:38.268Z,25.17
2018-12-18T10:17:04.419Z,27.10
2018-12-18T10:19:30.574Z,21.47
2018-12-18T10:21:56.723Z,20.17
2018-12-18T10:24:22.874Z,24.93
2018-12-18T10:26:49.007Z,28.00
2018-12-18T10:29:15.123Z,26.83
2018-12-18T10:31:41.280Z,25.27
2018-12-18T10:34:07.467Z,23.17
2018-12-18T10:36:33.647Z,32.90
2018-12-18T10:38:59.770Z,26.70
2018-12-18T10:41:25.990Z,27.43
2018-12-18T10:43:52.124Z,26.57
2018-12-18T10:46:18.249Z,23.37
2018-12-18T10:48:44.416Z,21.63
2018-12-18T10:51:10.547Z,24.63
2018-12-18T10:53:36.680Z,20.23
2018-12-18T10:56:02.852Z,19.73
2018-12-18T10:58:29.021Z,29.00
2018-12-18T11:03:55.760Z,24.47
2018-12-18T11:06:21.896Z,24.27
2018-12-18T11:08:48.043Z,20.47
2018-12-18T11:11:14.163Z,22.67
2018-12-18T11:13:40.458Z,18.80
2018-12-18T11:16:06.639Z,18.90
2018-12-18T11:18:32.790Z,19.83
2018-12-18T11:20:58.940Z,19.33
2018-12-18T11:23:25.085Z,19.13
2018-12-18T11:25:51.251Z,23.13
2018-12-18T11:28:17.394Z,18.83
2018-12-18T11:30:43.527Z,18.13
2018-12-18T11:33:09.705Z,20.77
2018-12-18T11:35:35.881Z,16.40
2018-12-18T11:38:02.044Z,20.80
2018-12-18T11:40:28.204Z,20.07
2018-12-18T11:42:54.343Z,19.20
2018-12-18T11:45:20.492Z,20.17
2018-12-18T11:47:46.627Z,22.13
2018-12-18T11:50:12.767Z,22.17
2018-12-18T11:52:38.933Z,26.87
2018-12-18T11:55:05.124Z,23.40
2018-12-18T11:57:31.291Z,22.37
2018-12-18T11:59:57.434Z,25.37
2018-12-18T12:02:23.590Z,20.03
2018-12-18T12:04:49.722Z,21.13
2018-12-18T12:07:15.850Z,23.80
2018-12-18T12:09:41.999Z,24.93
2018-12-18T12:12:08.166Z,26.43
2018-12-18T12:14:34.343Z,21.57
2018-12-18T12:17:01.609Z,30.50
2018-12-18T12:19:28.148Z,27.07
2018-12-18T12:21:54.282Z,26.90
2018-12-18T12:24:20.447Z,24.80
2018-12-18T12:26:48.455Z,25.20
2018-12-18T12:29:14.593Z,27.80
2018-12-18T12:31:40.773Z,25.27
2018-12-18T12:34:06.927Z,25.27
2018-12-18T12:36:33.059Z,21.40
2018-12-18T12:38:59.203Z,22.83
2018-12-18T12:41:25.331Z,25.93
2018-12-18T12:43:51.486Z,23.20
2018-12-18T12:46:17.747Z,26.90
2018-12-18T12:48:50.099Z,28.00
2018-12-18T12:51:16.215Z,26.27
2018-12-18T12:53:42.496Z,25.77
2018-12-18T12:56:08.623Z,21.30
2018-12-18T12:58:34.803Z,25.50
2018-12-18T13:01:00.971Z,24.43
2018-12-18T13:03:27.129Z,21.37
2018-12-18T13:05:53.290Z,24.50
2018-12-18T13:08:19.407Z,18.93
2018-12-18T13:10:45.539Z,22.57
2018-12-18T13:13:11.688Z,21.33
2018-12-18T13:15:37.845Z,19.30
2018-12-18T13:18:03.976Z,23.47
2018-12-18T13:20:30.115Z,24.53
2018-12-18T13:22:56.243Z,22.57
2018-12-18T13:25:22.375Z,21.60
2018-12-18T13:27:48.515Z,22.27
2018-12-18T13:30:14.646Z,23.63
2018-12-18T13:32:40.773Z,21.53
2018-12-18T13:35:06.922Z,16.63
2018-12-18T13:37:33.058Z,14.43
2018-12-18T13:39:59.196Z,19.97
2018-12-18T13:42:25.339Z,18.00
2018-12-18T13:44:51.499Z,20.43
2018-12-18T13:47:17.632Z,21.67
2018-12-18T13:49:43.774Z,18.43
2018-12-18T13:52:09.918Z,23.10
2018-12-18T13:54:36.037Z,21.07
2018-12-18T13:57:02.163Z,16.80
2018-12-18T13:59:28.290Z,16.83
2018-12-18T14:01:54.437Z,17.83
2018-12-18T14:04:20.572Z,20.63
2018-12-18T14:06:49.638Z,21.40
2018-12-18T14:09:14.998Z,18.67
2018-12-18T14:11:41.159Z,19.50
2018-12-18T14:14:07.289Z,25.00
2018-12-18T14:16:33.476Z,22.53
2018-12-18T14:18:59.674Z,24.77
2018-12-18T14:21:25.804Z,24.17
2018-12-18T14:23:51.923Z,20.50
2018-12-18T14:26:18.187Z,21.50
2018-12-18T14:28:44.319Z,25.03
2018-12-18T14:31:10.476Z,23.83
2018-12-18T14:33:36.647Z,23.20
2018-12-18T14:36:02.807Z,23.73
2018-12-18T14:38:28.996Z,23.53
2018-12-18T14:40:55.141Z,22.97
2018-12-18T14:43:21.296Z,22.43
2018-12-18T14:45:47.445Z,19.63
2018-12-18T14:48:13.583Z,21.10
2018-12-18T14:50:39.783Z,21.83
2018-12-18T14:53:05.948Z,22.07
2018-12-18T14:55:32.098Z,20.67
2018-12-18T14:57:58.233Z,20.70
2018-12-18T15:00:24.344Z,22.03
2018-12-18T15:02:50.486Z,24.17
2018-12-18T15:05:17.751Z,22.87
2018-12-18T15:07:44.255Z,29.83
2018-12-18T15:10:10.451Z,23.37
2018-12-18T15:12:38.641Z,21.60
2018-12-18T15:15:04.830Z,21.93
2018-12-18T15:17:30.991Z,18.03
2018-12-18T15:19:57.135Z,18.97
2018-12-18T15:22:23.267Z,17.47
2018-12-18T15:24:49.399Z,18.63
2018-12-18T15:27:15.599Z,19.10
2018-12-18T15:29:41.772Z,17.03
2018-12-18T15:32:07.958Z,22.87
2018-12-18T15:34:34.099Z,18.67
2018-12-18T15:37:00.243Z,19.70
2018-12-18T15:39:26.382Z,18.83
2018-12-18T15:41:52.519Z,17.73
2018-12-18T15:44:18.824Z,21.00
2018-12-18T15:46:44.987Z,17.37
2018-12-18T15:49:11.119Z,20.10
2018-12-18T15:51:37.307Z,21.53
2018-12-18T15:54:03.507Z,17.97
2018-12-18T15:56:29.623Z,22.17
2018-12-18T15:58:55.763Z,23.87
2018-12-18T16:01:21.911Z,23.40
2018-12-18T16:03:48.063Z,25.90
2018-12-18T16:06:14.184Z,24.13
2018-12-18T16:08:40.331Z,23.67
2018-12-18T16:11:06.456Z,24.30
2018-12-18T16:13:32.587Z,27.00
2018-12-18T16:15:58.719Z,21.60
2018-12-18T16:18:24.846Z,23.27
2018-12-18T16:20:50.976Z,24.77
2018-12-18T16:23:17.151Z,26.03
2018-12-18T16:25:43.299Z,21.20
2018-12-18T16:28:09.432Z,21.57
2018-12-18T16:30:35.586Z,21.80
2018-12-18T16:33:01.790Z,26.27
2018-12-18T16:35:28.304Z,27.70
2018-12-18T16:37:54.655Z,27.03
2018-12-18T16:40:20.794Z,21.30
2018-12-18T16:42:46.935Z,24.90
2018-12-18T16:45:13.228Z,27.37
2018-12-18T16:47:39.440Z,26.00
2018-12-18T16:50:05.775Z,21.03
2018-12-18T16:52:31.907Z,22.10
2018-12-18T16:54:58.067Z,26.60
2018-12-18T16:57:24.254Z,28.27
2018-12-18T16:59:50.391Z,24.80
2018-12-18T17:02:16.563Z,25.80
2018-12-18T17:04:42.728Z,27.33
2018-12-18T17:07:08.898Z,24.03
2018-12-18T17:09:35.121Z,24.03
2018-12-18T17:12:01.255Z,19.10
2018-12-18T17:14:27.385Z,21.53
2018-12-18T17:16:53.540Z,24.70
2018-12-18T17:19:19.675Z,18.57
2018-12-18T17:21:45.850Z,18.20
2018-12-18T17:24:11.979Z,18.50
2018-12-18T17:26:38.136Z,22.63
2018-12-18T17:29:04.285Z,22.80
2018-12-18T17:31:30.431Z,24.80
2018-12-18T17:33:56.583Z,22.87
2018-12-18T17:36:22.724Z,24.73
2018-12-18T17:38:48.847Z,19.53
2018-12-18T17:41:15.052Z,19.60
2018-12-18T17:43:41.555Z,26.67
2018-12-18T17:46:07.723Z,21.83
2018-12-18T17:48:33.859Z,21.97
2018-12-18T17:50:59.989Z,22.13
2018-12-18T17:53:26.114Z,20.60
2018-12-18T17:55:52.263Z,29.73
2018-12-18T17:58:18.511Z,24.30
2018-12-18T18:00:44.680Z,23.80
2018-12-18T18:03:10.859Z,21.67
2018-12-18T18:05:37.015Z,18.93
2018-12-18T18:08:03.166Z,17.67
2018-12-18T18:10:29.309Z,18.60
2018-12-18T18:12:55.482Z,22.63
2018-12-18T18:15:21.742Z,18.40
2018-12-18T18:17:47.874Z,27.87
2018-12-18T18:20:14.259Z,19.50
2018-12-18T18:22:40.597Z,27.03
2018-12-18T18:25:06.747Z,29.33
2018-12-18T18:27:32.891Z,23.67
2018-12-18T18:29:59.056Z,22.40
2018-12-18T18:32:25.207Z,20.13
2018-12-18T18:34:51.336Z,19.63
2018-12-18T18:37:17.475Z,21.30
2018-12-18T18:39:43.602Z,22.57
2018-12-18T18:42:09.794Z,17.50
2018-12-18T18:44:35.935Z,20.07
2018-12-18T18:47:02.109Z,20.27
2018-12-18T18:49:28.240Z,27.53
2018-12-18T18:51:54.379Z,25.97
2018-12-18T18:54:20.515Z,26.17
2018-12-18T18:56:46.676Z,28.90
2018-12-18T18:59:12.831Z,22.07
2018-12-18T19:01:39.035Z,22.30
2018-12-18T19:04:05.326Z,23.87
2018-12-18T19:06:31.507Z,27.53
2018-12-18T19:08:57.649Z,25.70
2018-12-18T19:11:23.763Z,29.87
2018-12-18T19:13:49.910Z,28.10
2018-12-18T19:16:16.047Z,24.97
2018-12-18T19:18:42.179Z,21.43
2018-12-18T19:21:08.341Z,21.23
2018-12-18T19:23:34.502Z,24.77
2018-12-18T19:26:00.843Z,23.30
2018-12-18T19:28:26.974Z,27.33
2018-12-18T19:30:53.167Z,23.50
2018-12-18T19:33:19.304Z,22.13
2018-12-18T19:35:45.427Z,20.10
2018-12-18T19:38:11.604Z,26.27
2018-12-18T19:40:37.729Z,29.80
2018-12-18T19:43:03.880Z,23.33
2018-12-18T19:45:30.083Z,27.53
2018-12-18T19:47:56.290Z,20.47
2018-12-18T19:50:22.462Z,27.83
2018-12-18T19:52:48.586Z,25.43
2018-12-18T19:55:14.742Z,25.13
2018-12-18T19:57:40.872Z,25.27
2018-12-18T20:00:09.502Z,23.30
2018-12-18T20:02:35.671Z,21.43
2018-12-18T20:05:01.857Z,21.63
2018-12-18T20:07:28.021Z,19.40
2018-12-18T20:09:54.160Z,23.27
2018-12-18T20:12:20.356Z,24.77
2018-12-18T20:14:46.644Z,21.90
2018-12-18T20:17:12.922Z,20.20
2018-12-18T20:19:39.337Z,17.33
2018-12-18T20:22:05.484Z,20.97
2018-12-18T20:24:31.635Z,23.07
2018-12-18T20:26:57.776Z,22.23
2018-12-18T20:29:23.917Z,19.63
2018-12-18T20:31:50.053Z,21.10
2018-12-18T20:34:16.264Z,23.03
2018-12-18T20:36:42.403Z,21.97
2018-12-18T20:39:08.605Z,21.40
2018-12-18T20:41:34.811Z,15.63
2018-12-18T20:44:01.012Z,15.63
2018-12-18T20:46:27.165Z,17.37
2018-12-18T20:48:53.298Z,15.67
2018-12-18T20:51:19.432Z,18.47
2018-12-18T20:53:45.580Z,15.90
2018-12-18T20:56:11.758Z,13.93
2018-12-18T20:58:37.879Z,11.83
2018-12-18T21:01:04.045Z,14.50
2018-12-18T21:03:30.210Z,18.63
2018-12-18T21:05:56.357Z,15.53
2018-12-18T21:08:23.546Z,18.07
2018-12-18T21:10:49.892Z,17.40
2018-12-18T21:13:22.006Z,20.00
2018-12-18T21:15:48.128Z,18.77
2018-12-18T21:18:14.280Z,18.97
2018-12-18T21:20:40.442Z,18.80
2018-12-18T21:23:06.550Z,15.17
2018-12-18T21:25:32.675Z,15.33
2018-12-18T21:27:58.807Z,14.43
2018-12-18T21:30:24.951Z,12.20
2018-12-18T21:32:51.129Z,10.80
2018-12-18T21:35:17.267Z,10.83
2018-12-18T21:37:43.412Z,11.57
2018-12-18T21:40:09.547Z,12.83
2018-12-18T21:42:35.872Z,10.33
2018-12-18T21:45:02.040Z,10.60
2018-12-18T21:47:28.195Z,9.43
2018-12-18T21:49:54.361Z,9.63
2018-12-18T21:52:20.497Z,10.93
2018-12-18T21:54:46.587Z,14.77
2018-12-18T21:57:12.745Z,13.57
2018-12-18T21:59:38.869Z,11.60
2018-12-18T22:02:05.008Z,11.53
2018-12-18T22:04:31.271Z,10.37
2018-12-18T22:06:57.461Z,6.87
2018-12-18T22:09:23.733Z,8.97
2018-12-18T22:11:49.884Z,6.70
2018-12-18T22:14:15.979Z,7.07
2018-12-18T22:16:42.125Z,7.03
2018-12-18T22:19:08.297Z,5.97
2018-12-18T22:21:34.443Z,6.83
2018-12-18T22:24:00.584Z,9.67
2018-12-18T22:26:26.707Z,6.80
2018-12-18T22:28:52.870Z,6.17
2018-12-18T22:31:19.006Z,12.97
2018-12-18T22:33:45.145Z,14.40
2018-12-18T22:36:11.283Z,15.60
2018-12-18T22:38:43.436Z,14.67
2018-12-18T22:41:05.639Z,14.67
2018-12-18T22:43:31.768Z,15.27
2018-12-18T22:45:57.969Z,12.03
2018-12-18T22:48:24.127Z,15.03
2018-12-18T22:50:50.295Z,12.83
2018-12-18T22:53:16.423Z,12.60
2018-12-18T22:55:45.074Z,12.70
2018-12-18T22:58:10.763Z,14.63
2018-12-18T23:03:39.518Z,13.17
2018-12-18T23:06:05.715Z,14.80
2018-12-18T23:08:32.367Z,15.57
2018-12-18T23:10:59.247Z,10.93
2018-12-18T23:13:25.439Z,11.87
2018-12-18T23:15:51.631Z,13.13
2018-12-18T23:18:17.787Z,15.40
2018-12-18T23:20:43.940Z,12.57
2018-12-18T23:23:10.118Z,12.63
2018-12-18T23:25:36.280Z,12.70
2018-12-18T23:28:02.457Z,13.00
2018-12-18T23:30:28.638Z,15.13
2018-12-18T23:32:54.755Z,12.67
2018-12-18T23:35:20.930Z,14.60
2018-12-18T23:37:47.091Z,16.57
2018-12-18T23:40:13.255Z,14.03
2018-12-18T23:42:39.392Z,14.40
2018-12-18T23:45:05.691Z,15.07
2018-12-18T23:47:31.853Z,13.77
2018-12-18T23:49:57.994Z,15.30
2018-12-18T23:52:24.150Z,16.97
2018-12-18T23:54:50.300Z,15.07
2018-12-18T23:57:16.439Z,17.23
2018-12-18T23:59:42.616Z,14.90
